createdAt,value
2022-10-03T00:00:01.889Z,99604.34
2022-10-03T00:02:53.348Z,99616.19
2022-10-03T00:05:35.241Z,99602.06
2022-10-03T00:08:09.821Z,99597.06
2022-10-03T00:10:51.493Z,99603.78
2022-10-03T00:13:29.288Z,99602.06
2022-10-03T00:16:10.682Z,99602.03
2022-10-03T00:18:50.239Z,99604.53
2022-10-03T00:21:34.719Z,99612.88
2022-10-03T00:24:14.571Z,99612.16
2022-10-03T00:26:50.336Z,99605.69
2022-10-03T00:29:36.490Z,99602.38
2022-10-03T00:32:19.266Z,99607.44
2022-10-03T00:35:03.921Z,99602.41
2022-10-03T00:37:37.395Z,99600.78
2022-10-03T00:40:30.002Z,99598.28
2022-10-03T00:43:38.460Z,99597.34
2022-10-03T00:46:36.054Z,99600.59
2022-10-03T00:49:29.478Z,99590.56
2022-10-03T00:52:10.797Z,99594.88
2022-10-03T00:54:59.762Z,99591.56
2022-10-03T00:57:49.119Z,99540.16
2022-10-03T01:00:20.367Z,99544.38
2022-10-03T01:03:11.095Z,99587.53
2022-10-03T01:05:50.526Z,99528.31
2022-10-03T01:08:49.697Z,99583.97
2022-10-03T01:11:33.223Z,99595.88
2022-10-03T01:14:19.888Z,99592.53
2022-10-03T01:17:00.441Z,99605.91
2022-10-03T01:19:56.929Z,99604.34
2022-10-03T01:22:50.466Z,99606.03
2022-10-03T01:25:30.659Z,99606.03
2022-10-03T01:28:22.671Z,99606.84
2022-10-03T01:30:58.267Z,99599.19
2022-10-03T01:33:32.038Z,99589.97
2022-10-03T01:36:09.563Z,99590.75
2022-10-03T01:38:45.492Z,99597.34
2022-10-03T01:41:25.884Z,99603.97
2022-10-03T01:44:00.638Z,99606.41
2022-10-03T01:46:40.060Z,99607.19
2022-10-03T01:49:14.757Z,99604.66
2022-10-03T01:51:48.711Z,99599.56
2022-10-03T01:54:26.207Z,99602.06
2022-10-03T01:56:58.856Z,99611.28
2022-10-03T01:59:38.537Z,99613.84
2022-10-03T02:02:17.393Z,99595.38
2022-10-03T02:04:53.639Z,99605.47
2022-10-03T02:07:29.971Z,99612.97
2022-10-03T02:10:08.100Z,99630.50
2022-10-03T02:12:41.224Z,99616.22
2022-10-03T02:15:17.198Z,99617.00
2022-10-03T02:17:55.549Z,99626.97
2022-10-03T02:20:29.401Z,99623.59
2022-10-03T02:22:59.462Z,99624.31
2022-10-03T02:25:51.841Z,99632.81
2022-10-03T02:28:36.078Z,99627.03
2022-10-03T02:31:33.756Z,99618.69
2022-10-03T02:34:26.064Z,99618.75
2022-10-03T02:37:16.678Z,99620.44
2022-10-03T02:40:20.702Z,99633.81
2022-10-03T02:43:17.010Z,99632.94
2022-10-03T02:46:17.098Z,99630.41
2022-10-03T02:49:11.945Z,99637.22
2022-10-03T02:51:58.559Z,99620.34
2022-10-03T02:54:50.182Z,99622.81
2022-10-03T02:57:49.718Z,99627.88
2022-10-03T03:00:21.394Z,99631.19
2022-10-03T03:03:22.769Z,99632.00
2022-10-03T03:06:15.917Z,99621.09
2022-10-03T03:09:23.399Z,99621.00
2022-10-03T03:12:20.835Z,99634.38
2022-10-03T03:15:13.965Z,99636.81
2022-10-03T03:17:53.686Z,99630.13
2022-10-03T03:20:34.342Z,99641.84
2022-10-03T03:23:20.260Z,99636.84
2022-10-03T03:26:15.660Z,99641.88
2022-10-03T03:28:55.698Z,99631.81
2022-10-03T03:31:33.177Z,99640.94
2022-10-03T03:34:09.036Z,99658.44
2022-10-03T03:36:45.144Z,99636.69
2022-10-03T03:39:31.036Z,99654.22
2022-10-03T03:42:20.935Z,99665.09
2022-10-03T03:45:03.848Z,99657.53
2022-10-03T03:47:46.269Z,99650.63
2022-10-03T03:50:28.422Z,99653.31
2022-10-03T03:53:20.726Z,99658.25
2022-10-03T03:56:06.187Z,99664.97
2022-10-03T03:58:40.639Z,99684.19
2022-10-03T04:01:31.611Z,99661.63
2022-10-03T04:04:10.024Z,99656.63
2022-10-03T04:06:54.248Z,99662.47
2022-10-03T04:09:43.166Z,99666.63
2022-10-03T04:12:21.887Z,99667.41
2022-10-03T04:15:22.233Z,99666.56
2022-10-03T04:18:33.440Z,99676.53
2022-10-03T04:21:27.949Z,99675.59
2022-10-03T04:24:19.753Z,99694.78
2022-10-03T04:27:04.448Z,99693.09
2022-10-03T04:29:59.418Z,99707.31
2022-10-03T04:32:49.358Z,99697.28
2022-10-03T04:35:34.162Z,99689.69
2022-10-03T04:38:14.122Z,99682.88
2022-10-03T04:40:51.427Z,99692.25
2022-10-03T04:43:31.087Z,99693.06
2022-10-03T04:46:16.269Z,99694.69
2022-10-03T04:48:51.647Z,99686.44
2022-10-03T04:51:32.929Z,99696.56
2022-10-03T04:54:06.452Z,99694.91
2022-10-03T04:56:45.223Z,99703.31
2022-10-03T04:59:35.363Z,99699.13
2022-10-03T05:02:12.725Z,99701.69
2022-10-03T05:05:00.161Z,99705.03
2022-10-03T05:07:41.421Z,99702.47
2022-10-03T05:10:27.587Z,99711.56
2022-10-03T05:13:02.821Z,99712.44
2022-10-03T05:15:36.051Z,99694.00
2022-10-03T05:18:17.786Z,99706.63
2022-10-03T05:20:51.595Z,99713.34
2022-10-03T05:23:31.252Z,99718.34
2022-10-03T05:26:39.179Z,99708.25
2022-10-03T05:29:05.470Z,99717.44
2022-10-03T05:31:49.573Z,99733.31
2022-10-03T05:34:28.681Z,99729.09
2022-10-03T05:37:24.377Z,99724.13
2022-10-03T05:39:59.979Z,99723.38
2022-10-03T05:42:36.866Z,99720.91
2022-10-03T05:45:09.745Z,99726.75
2022-10-03T05:47:49.904Z,99732.63
2022-10-03T05:50:58.788Z,99725.03
2022-10-03T05:54:04.605Z,99730.19
2022-10-03T05:56:58.026Z,99728.63
2022-10-03T06:00:02.288Z,99735.47
2022-10-03T06:03:15.101Z,99733.13
2022-10-03T06:05:59.992Z,99746.69
2022-10-03T06:08:53.889Z,99756.81
2022-10-03T06:11:35.802Z,99746.88
2022-10-03T06:14:29.996Z,99761.22
2022-10-03T06:17:14.013Z,99751.38
2022-10-03T06:19:51.319Z,99774.06
2022-10-03T06:22:54.579Z,99771.53
2022-10-03T06:26:02.187Z,99763.25
2022-10-03T06:28:56.985Z,99762.56
2022-10-03T06:32:12.334Z,99767.59
2022-10-03T06:35:12.135Z,99766.75
2022-10-03T06:38:27.871Z,99772.69
2022-10-03T06:41:21.652Z,99771.94
2022-10-03T06:44:12.428Z,99774.59
2022-10-03T06:46:56.051Z,99798.09
2022-10-03T06:49:53.214Z,99790.59
2022-10-03T06:52:56.412Z,99794.09
2022-10-03T06:55:54.246Z,99791.69
2022-10-03T06:59:05.063Z,99791.66
2022-10-03T07:02:03.148Z,99805.91
2022-10-03T07:05:04.625Z,99796.03
2022-10-03T07:08:07.323Z,99792.63
2022-10-03T07:10:58.980Z,99794.31
2022-10-03T07:14:13.024Z,99790.78
2022-10-03T07:17:01.390Z,99802.50
2022-10-03T07:19:56.456Z,99814.16
2022-10-03T07:23:01.285Z,99810.78
2022-10-03T07:25:46.021Z,99804.09
2022-10-03T07:28:38.925Z,99807.41
2022-10-03T07:31:15.337Z,99817.53
2022-10-03T07:34:08.033Z,99819.25
2022-10-03T07:37:13.674Z,99818.41
2022-10-03T07:40:06.497Z,99816.13
2022-10-03T07:42:55.347Z,99829.75
2022-10-03T07:45:39.513Z,99824.66
2022-10-03T07:48:55.221Z,99811.25
2022-10-03T07:51:30.487Z,99828.91
2022-10-03T07:54:31.746Z,99831.53
2022-10-03T07:57:38.045Z,99823.28
2022-10-03T08:00:17.680Z,99826.69
2022-10-03T08:03:18.264Z,99832.78
2022-10-03T08:06:01.869Z,99838.66
2022-10-03T08:08:56.838Z,99828.50
2022-10-03T08:11:48.058Z,99824.16
2022-10-03T08:14:20.115Z,99825.22
2022-10-03T08:17:21.181Z,99827.03
2022-10-03T08:20:08.321Z,99829.63
2022-10-03T08:22:48.842Z,99826.34
2022-10-03T08:25:28.928Z,99823.75
2022-10-03T08:28:17.777Z,99828.59
2022-10-03T08:31:08.155Z,99820.84
2022-10-03T08:34:00.268Z,99836.69
2022-10-03T08:37:22.647Z,99831.63
2022-10-03T08:40:36.802Z,99826.66
2022-10-03T08:43:36.482Z,99828.59
2022-10-03T08:46:14.703Z,99831.88
2022-10-03T08:49:03.121Z,99835.78
2022-10-03T08:52:02.952Z,99839.91
2022-10-03T08:54:46.052Z,99833.06
2022-10-03T08:57:33.992Z,99837.34
2022-10-03T09:00:21.014Z,99835.84
2022-10-03T09:03:34.310Z,99846.56
2022-10-03T09:06:58.582Z,99843.19
2022-10-03T09:10:14.253Z,99839.84
2022-10-03T09:13:20.158Z,99845.03
2022-10-03T09:16:25.044Z,99848.47
2022-10-03T09:19:07.336Z,99829.78
2022-10-03T09:22:09.528Z,99841.50
2022-10-03T09:25:13.045Z,99841.47
2022-10-03T09:28:25.462Z,99834.72
2022-10-03T09:31:04.934Z,99839.22
2022-10-03T09:34:12.661Z,99841.88
2022-10-03T09:37:21.872Z,99825.22
2022-10-03T09:40:26.949Z,99824.59
2022-10-03T09:43:11.217Z,99826.41
2022-10-03T09:46:11.169Z,99831.50
2022-10-03T09:49:16.473Z,99831.38
2022-10-03T09:51:55.334Z,99823.09
2022-10-03T09:55:07.533Z,99833.97
2022-10-03T09:58:12.505Z,99832.09
2022-10-03T10:01:11.834Z,99835.28
2022-10-03T10:04:37.557Z,99836.97
2022-10-03T10:07:36.997Z,99832.00
2022-10-03T10:10:28.452Z,99845.66
2022-10-03T10:13:25.263Z,99836.19
2022-10-03T10:16:22.809Z,99833.69
2022-10-03T10:19:16.252Z,99827.06
2022-10-03T10:22:14.480Z,99837.31
2022-10-03T10:25:14.247Z,99818.72
2022-10-03T10:28:32.964Z,99824.50
2022-10-03T10:31:55.063Z,99812.09
2022-10-03T10:35:17.458Z,99809.72
2022-10-03T10:38:11.240Z,99813.09
2022-10-03T10:41:18.322Z,99814.91
2022-10-03T10:44:20.857Z,99831.91
2022-10-03T10:47:21.388Z,99817.34
2022-10-03T10:50:31.504Z,99812.16
2022-10-03T10:53:38.181Z,99835.53
2022-10-03T10:56:57.903Z,99824.63
2022-10-03T10:59:58.034Z,99824.00
2022-10-03T11:03:10.702Z,99817.97
2022-10-03T11:06:08.356Z,99826.94
2022-10-03T11:09:11.897Z,99825.16
2022-10-03T11:12:25.242Z,99834.34
2022-10-03T11:15:25.888Z,99813.50
2022-10-03T11:18:27.203Z,99833.75
2022-10-03T11:21:39.138Z,99836.69
2022-10-03T11:24:45.816Z,99815.84
2022-10-03T11:27:59.348Z,99815.97
2022-10-03T11:31:09.476Z,99819.34
2022-10-03T11:34:13.639Z,99810.78
2022-10-03T11:37:09.161Z,99802.53
2022-10-03T11:39:45.385Z,99801.91
2022-10-03T11:42:25.661Z,99802.97
2022-10-03T11:44:59.956Z,99806.47
2022-10-03T11:47:46.251Z,99821.34
2022-10-03T11:50:38.548Z,99813.09
2022-10-03T11:53:17.933Z,99822.25
2022-10-03T11:55:52.507Z,99829.72
2022-10-03T11:58:36.430Z,99811.28
2022-10-03T12:01:24.642Z,99817.28
2022-10-03T12:04:08.544Z,99828.25
2022-10-03T12:07:10.869Z,99811.44
2022-10-03T12:09:48.832Z,99808.28
2022-10-03T12:12:28.069Z,99814.97
2022-10-03T12:15:04.493Z,99814.81
2022-10-03T12:17:38.019Z,99826.66
2022-10-03T12:20:19.233Z,99833.50
2022-10-03T12:22:53.128Z,99813.31
2022-10-03T12:25:24.216Z,99809.06
2022-10-03T12:28:01.669Z,99834.44
2022-10-03T12:30:35.736Z,99784.91
2022-10-03T12:33:19.988Z,99815.34
2022-10-03T12:35:55.362Z,99795.25
2022-10-03T12:38:48.911Z,99812.13
2022-10-03T12:41:35.957Z,99798.69
2022-10-03T12:44:20.667Z,99805.41
2022-10-03T12:46:58.805Z,99805.41
2022-10-03T12:49:45.696Z,99797.75
2022-10-03T12:52:22.818Z,99798.69
2022-10-03T12:55:02.641Z,99800.44
2022-10-03T12:57:47.332Z,99799.59
2022-10-03T13:00:21.890Z,99798.75
2022-10-03T13:03:05.172Z,99801.34
2022-10-03T13:06:12.937Z,99807.22
2022-10-03T13:08:55.287Z,99798.06
2022-10-03T13:11:32.563Z,99805.69
2022-10-03T13:14:17.570Z,99807.47
2022-10-03T13:16:58.800Z,99797.28
2022-10-03T13:19:31.501Z,99811.81
2022-10-03T13:22:09.716Z,99801.81
2022-10-03T13:24:43.766Z,99801.84
2022-10-03T13:27:32.721Z,99798.56
2022-10-03T13:30:07.144Z,99804.38
2022-10-03T13:32:37.569Z,99829.66
2022-10-03T13:35:35.497Z,99789.94
2022-10-03T13:38:33.176Z,99809.25
2022-10-03T13:41:13.413Z,99803.25
2022-10-03T13:43:47.989Z,99801.47
2022-10-03T13:46:20.108Z,99821.56
2022-10-03T13:49:01.802Z,99832.28
2022-10-03T13:51:41.624Z,99823.03
2022-10-03T13:54:21.066Z,99828.78
2022-10-03T13:56:55.285Z,99827.97
2022-10-03T13:59:37.602Z,99827.84
2022-10-03T14:02:20.208Z,99822.00
2022-10-03T14:04:59.859Z,99837.38
2022-10-03T14:07:39.769Z,99842.56
2022-10-03T14:10:24.642Z,99824.06
2022-10-03T14:13:06.490Z,99818.16
2022-10-03T14:15:45.098Z,99824.03
2022-10-03T14:18:26.809Z,99829.88
2022-10-03T14:21:27.449Z,99843.31
2022-10-03T14:24:05.945Z,99835.66
2022-10-03T14:26:40.208Z,99828.78
2022-10-03T14:29:18.551Z,99835.47
2022-10-03T14:31:57.355Z,99825.59
2022-10-03T14:34:42.187Z,99822.38
2022-10-03T14:37:24.893Z,99851.34
2022-10-03T14:40:05.045Z,99824.31
2022-10-03T14:43:07.438Z,99863.16
2022-10-03T14:45:40.667Z,99853.03
2022-10-03T14:48:14.012Z,99842.06
2022-10-03T14:50:43.630Z,99845.50
2022-10-03T14:53:18.897Z,99831.13
2022-10-03T14:55:56.978Z,99843.88
2022-10-03T14:58:32.407Z,99858.19
2022-10-03T15:01:10.642Z,99849.78
2022-10-03T15:03:41.543Z,99873.22
2022-10-03T15:06:34.827Z,99859.34
2022-10-03T15:09:06.077Z,99877.53
2022-10-03T15:11:36.869Z,99855.94
2022-10-03T15:14:10.026Z,99851.84
2022-10-03T15:16:45.280Z,99862.88
2022-10-03T15:19:18.043Z,99881.38
2022-10-03T15:21:47.572Z,99897.09
2022-10-03T15:24:25.247Z,99868.31
2022-10-03T15:27:01.479Z,99885.91
2022-10-03T15:29:32.196Z,99898.94
2022-10-03T15:32:01.046Z,99901.28
2022-10-03T15:34:33.314Z,99914.72
2022-10-03T15:37:08.006Z,99904.53
2022-10-03T15:39:40.366Z,99902.03
2022-10-03T15:42:22.924Z,99900.88
2022-10-03T15:44:54.628Z,99919.19
2022-10-03T15:47:25.742Z,99901.44
2022-10-03T15:49:57.062Z,99903.13
2022-10-03T15:52:32.675Z,99903.91
2022-10-03T15:55:12.661Z,99912.13
2022-10-03T15:57:46.366Z,99902.72
2022-10-03T16:00:24.635Z,99896.06
2022-10-03T16:02:57.994Z,99904.28
2022-10-03T16:05:27.838Z,99904.22
2022-10-03T16:08:01.445Z,99902.53
2022-10-03T16:10:35.269Z,99907.56
2022-10-03T16:13:15.508Z,99911.72
2022-10-03T16:16:10.239Z,99915.75
2022-10-03T16:18:48.283Z,99923.19
2022-10-03T16:21:21.842Z,99922.31
2022-10-03T16:23:54.876Z,99923.88
2022-10-03T16:26:28.807Z,99926.28
2022-10-03T16:29:05.476Z,99920.31
2022-10-03T16:31:40.694Z,99921.88
2022-10-03T16:34:15.553Z,99923.47
2022-10-03T16:36:45.703Z,99930.16
2022-10-03T16:39:22.796Z,99918.16
2022-10-03T16:41:54.306Z,99931.66
2022-10-03T16:44:27.053Z,99921.53
2022-10-03T16:47:02.448Z,99928.19
2022-10-03T16:49:58.640Z,99923.19
2022-10-03T16:52:33.331Z,99937.34
2022-10-03T16:55:06.891Z,99931.50
2022-10-03T16:57:45.608Z,99951.53
2022-10-03T17:00:18.691Z,99924.66
2022-10-03T17:02:49.042Z,99930.53
2022-10-03T17:05:18.552Z,99941.56
2022-10-03T17:07:49.269Z,99943.13
2022-10-03T17:10:30.027Z,99962.44
2022-10-03T17:13:03.541Z,99957.38
2022-10-03T17:15:36.982Z,99931.13
2022-10-03T17:18:23.294Z,99941.47
2022-10-03T17:20:57.568Z,99941.41
2022-10-03T17:23:31.970Z,99947.28
2022-10-03T17:26:06.851Z,99947.13
2022-10-03T17:28:44.499Z,99933.66
2022-10-03T17:31:29.374Z,99956.31
2022-10-03T17:34:05.834Z,99954.63
2022-10-03T17:36:50.558Z,99936.97
2022-10-03T17:39:33.065Z,99950.38
2022-10-03T17:42:09.042Z,99946.22
2022-10-03T17:44:47.733Z,99965.47
2022-10-03T17:47:23.111Z,99954.59
2022-10-03T17:50:00.003Z,99924.47
2022-10-03T17:52:29.448Z,99914.44
2022-10-03T17:55:02.075Z,99930.28
2022-10-03T17:57:36.902Z,99936.09
2022-10-03T18:00:09.657Z,99933.50
2022-10-03T18:02:45.222Z,99936.78
2022-10-03T18:05:18.505Z,99943.44
2022-10-03T18:07:48.057Z,99937.53
2022-10-03T18:10:25.544Z,99929.88
2022-10-03T18:12:57.316Z,99939.03
2022-10-03T18:15:42.436Z,99947.38
2022-10-03T18:18:46.227Z,99923.13
2022-10-03T18:21:25.911Z,99930.59
2022-10-03T18:24:14.562Z,99933.94
2022-10-03T18:26:46.126Z,99938.09
2022-10-03T18:29:25.712Z,99947.28
2022-10-03T18:31:58.752Z,99946.38
2022-10-03T18:34:34.779Z,99941.34
2022-10-03T18:37:37.858Z,99940.53
2022-10-03T18:40:14.063Z,99927.06
2022-10-03T18:42:41.958Z,99933.75
2022-10-03T18:45:20.482Z,99952.19
2022-10-03T18:47:54.000Z,99933.75
2022-10-03T18:50:30.215Z,99952.19
2022-10-03T18:53:05.496Z,99922.47
2022-10-03T18:55:40.781Z,99948.75
2022-10-03T18:58:18.349Z,99949.59
2022-10-03T19:00:52.617Z,99948.75
2022-10-03T19:03:27.429Z,99942.09
2022-10-03T19:06:01.222Z,99930.28
2022-10-03T19:08:39.440Z,99947.16
2022-10-03T19:11:21.012Z,99952.19
2022-10-03T19:14:00.917Z,99957.28
2022-10-03T19:16:49.870Z,99967.34
2022-10-03T19:19:26.914Z,99971.53
2022-10-03T19:21:56.008Z,99972.25
2022-10-03T19:24:53.509Z,99978.97
2022-10-03T19:27:21.092Z,99974.84
2022-10-03T19:29:52.064Z,99977.41
2022-10-03T19:32:27.563Z,99976.53
2022-10-03T19:35:00.393Z,99982.41
2022-10-03T19:37:45.106Z,99980.75
2022-10-03T19:40:23.453Z,99981.53
2022-10-03T19:42:58.320Z,99970.63
2022-10-03T19:45:26.621Z,99974.78
2022-10-03T19:47:59.399Z,99984.78
2022-10-03T19:50:29.378Z,99986.47
2022-10-03T19:52:57.553Z,99985.59
2022-10-03T19:55:32.404Z,99982.03
2022-10-03T19:58:02.289Z,99987.22
2022-10-03T20:00:32.710Z,99980.50
2022-10-03T20:03:13.848Z,99985.47
2022-10-03T20:06:02.422Z,99982.97
2022-10-03T20:08:39.130Z,99994.66
2022-10-03T20:11:35.121Z,99986.41
2022-10-03T20:14:03.668Z,99983.88
2022-10-03T20:16:35.995Z,99995.63
2022-10-03T20:19:09.866Z,99994.78
2022-10-03T20:21:38.018Z,99984.56
2022-10-03T20:24:12.687Z,100000.78
2022-10-03T20:26:50.593Z,99987.31
2022-10-03T20:29:28.445Z,99993.19
2022-10-03T20:32:01.334Z,99991.38
2022-10-03T20:34:29.942Z,100008.25
2022-10-03T20:37:14.000Z,100004.06
2022-10-03T20:39:46.241Z,100014.09
2022-10-03T20:42:19.479Z,100020.69
2022-10-03T20:44:57.804Z,100022.28
2022-10-03T20:47:52.116Z,100026.38
2022-10-03T20:50:25.731Z,100011.16
2022-10-03T20:52:55.730Z,100017.06
2022-10-03T20:55:27.461Z,100021.19
2022-10-03T20:58:13.157Z,100018.63
2022-10-03T21:00:48.681Z,100018.38
2022-10-03T21:03:28.480Z,100016.84
2022-10-03T21:05:59.174Z,100018.47
2022-10-03T21:08:30.542Z,100025.19
2022-10-03T21:11:01.987Z,100025.19
2022-10-03T21:13:36.161Z,100019.22
2022-10-03T21:16:19.290Z,99998.03
2022-10-03T21:18:50.725Z,100018.22
2022-10-03T21:21:25.026Z,100024.94
2022-10-03T21:23:57.770Z,100026.59
2022-10-03T21:26:31.091Z,100024.09
2022-10-03T21:29:27.775Z,100016.59
2022-10-03T21:32:09.566Z,100021.56
2022-10-03T21:34:45.668Z,100012.28
2022-10-03T21:37:19.139Z,100014.78
2022-10-03T21:39:59.607Z,100018.13
2022-10-03T21:42:34.348Z,100012.22
2022-10-03T21:45:19.000Z,100015.56
2022-10-03T21:47:51.522Z,100013.78
2022-10-03T21:50:25.644Z,100013.00
2022-10-03T21:53:16.177Z,100014.53
2022-10-03T21:55:54.724Z,100020.56
2022-10-03T21:58:45.201Z,100018.91
2022-10-03T22:01:21.065Z,100019.81
2022-10-03T22:03:55.846Z,100005.59
2022-10-03T22:06:25.772Z,100004.66
2022-10-03T22:08:54.707Z,100007.06
2022-10-03T22:11:31.686Z,100002.88
2022-10-03T22:14:10.152Z,100007.91
2022-10-03T22:16:46.333Z,100009.53
2022-10-03T22:19:22.907Z,99997.06
2022-10-03T22:22:10.808Z,99997.13
2022-10-03T22:24:51.377Z,99988.75
2022-10-03T22:27:25.205Z,99983.78
2022-10-03T22:30:02.558Z,99979.56
2022-10-03T22:32:37.408Z,99983.06
2022-10-03T22:35:19.300Z,99983.13
2022-10-03T22:37:47.243Z,99981.47
2022-10-03T22:40:15.240Z,99979.00
2022-10-03T22:42:46.572Z,99988.97
2022-10-03T22:45:16.940Z,99978.66
2022-10-03T22:47:50.414Z,99988.81
2022-10-03T22:50:22.361Z,99989.63
2022-10-03T22:52:52.674Z,99993.09
2022-10-03T22:55:23.369Z,99982.91
2022-10-03T22:57:53.159Z,99985.31
2022-10-03T23:00:24.503Z,99989.56
2022-10-03T23:02:59.946Z,99979.50
2022-10-03T23:05:44.620Z,99987.72
2022-10-03T23:08:28.176Z,100004.44
2022-10-03T23:11:01.217Z,99996.59
2022-10-03T23:13:37.362Z,100003.38
2022-10-03T23:16:17.553Z,99992.19
2022-10-03T23:18:59.221Z,99998.81
2022-10-03T23:21:27.660Z,100005.53
2022-10-03T23:24:08.447Z,99988.53
2022-10-03T23:26:55.106Z,100007.16
2022-10-03T23:29:23.660Z,100007.91
2022-10-03T23:31:58.799Z,100001.97
2022-10-03T23:35:08.011Z,99991.16
2022-10-03T23:37:53.565Z,99997.75
2022-10-03T23:40:35.985Z,99988.78
2022-10-03T23:43:28.476Z,99989.72
2022-10-03T23:46:01.101Z,99996.50
2022-10-03T23:48:32.318Z,99997.34
2022-10-03T23:51:04.690Z,99993.25
2022-10-03T23:53:38.697Z,99996.56
2022-10-03T23:56:23.819Z,99989.00
2022-10-03T23:58:57.418Z,99988.25
